sensor_id;sensor_type;location;lat;lon;timestamp;pressure;altitude;pressure_sealevel;temperature;humidity
44734;BME280;30462;52.446;-1.930;2022-11-06T00:00:18;99347.67969;;;;
44734;BME280;30462;52.446;-1.930;2022-11-06T00:01:19;99342.41016;;;;
44734;BME280;30462;52.446;-1.930;2022-11-06T00:02:18;99343.44922;;;;
44734;BME280;30462;52.446;-1.930;2022-11-06T00:03:18;99340.39453;;;;
44734;BME280;30462;52.446;-1.930;2022-11-06T00:04:18;99336.35547;;;;
44734;BME280;30462;52.446;-1.930;2022-11-06T00:05:18;99335.94531;;;;
44734;BME280;30462;52.446;-1.930;2022-11-06T00:06:18;99338.75391;;;;
44734;BME280;30462;52.446;-1.930;2022-11-06T00:07:17;99335.59375;;;;
44734;BME280;30462;52.446;-1.930;2022-11-06T00:09:18;99337.16797;;;;
44734;BME280;30462;52.446;-1.930;2022-11-06T00:10:18;99341.42188;;;;
44734;BME280;30462;52.446;-1.930;2022-11-06T00:11:18;99344.97266;;;;
44734;BME280;30462;52.446;-1.930;2022-11-06T00:12:18;99341.85547;;;;
44734;BME280;30462;52.446;-1.930;2022-11-06T00:13:17;99346.625;;;;
44734;BME280;30462;52.446;-1.930;2022-11-06T00:14:18;99347.39063;;;;
44734;BME280;30462;52.446;-1.930;2022-11-06T00:15:18;99344.55078;;;;
44734;BME280;30462;52.446;-1.930;2022-11-06T00:16:18;99347.84766;;;;
44734;BME280;30462;52.446;-1.930;2022-11-06T00:17:18;99349.28906;;;;
44734;BME280;30462;52.446;-1.930;2022-11-06T00:18:18;99349.37891;;;;
44734;BME280;30462;52.446;-1.930;2022-11-06T00:19:18;99349.26953;;;;
44734;BME280;30462;52.446;-1.930;2022-11-06T00:20:18;99346.78125;;;;
44734;BME280;30462;52.446;-1.930;2022-11-06T00:21:19;99347.12891;;;;
44734;BME280;30462;52.446;-1.930;2022-11-06T00:22:17;99348.16406;;;;
44734;BME280;30462;52.446;-1.930;2022-11-06T00:23:18;99345.82031;;;;
44734;BME280;30462;52.446;-1.930;2022-11-06T00:24:18;99345.05469;;;;
44734;BME280;30462;52.446;-1.930;2022-11-06T00:25:17;99343.25781;;;;
44734;BME280;30462;52.446;-1.930;2022-11-06T00:26:19;99343.75;;;;
44734;BME280;30462;52.446;-1.930;2022-11-06T00:27:18;99345.35156;;;;
44734;BME280;30462;52.446;-1.930;2022-11-06T00:28:18;99346.00781;;;;
44734;BME280;30462;52.446;-1.930;2022-11-06T00:29:18;99346.13672;;;;
44734;BME280;30462;52.446;-1.930;2022-11-06T00:30:18;99341.44531;;;;
44734;BME280;30462;52.446;-1.930;2022-11-06T00:31:18;99341.66406;;;;
44734;BME280;30462;52.446;-1.930;2022-11-06T00:32:17;99337.78906;;;;
44734;BME280;30462;52.446;-1.930;2022-11-06T00:33:18;99333.86328;;;;
44734;BME280;30462;52.446;-1.930;2022-11-06T00:34:18;99331.62891;;;;
44734;BME280;30462;52.446;-1.930;2022-11-06T00:35:18;99335.69922;;;;
44734;BME280;30462;52.446;-1.930;2022-11-06T00:36:19;99334.98828;;;;
44734;BME280;30462;52.446;-1.930;2022-11-06T00:37:18;99333.41016;;;;
44734;BME280;30462;52.446;-1.930;2022-11-06T00:38:18;99334.73828;;;;
44734;BME280;30462;52.446;-1.930;2022-11-06T00:39:18;99334.64844;;;;
44734;BME280;30462;52.446;-1.930;2022-11-06T00:40:18;99331.46484;;;;
44734;BME280;30462;52.446;-1.930;2022-11-06T00:41:18;99331.73828;;;;
44734;BME280;30462;52.446;-1.930;2022-11-06T00:42:18;99329.66406;;;;
44734;BME280;30462;52.446;-1.930;2022-11-06T00:43:18;99325.0625;;;;
44734;BME280;30462;52.446;-1.930;2022-11-06T00:44:17;99323.71875;;;;
44734;BME280;30462;52.446;-1.930;2022-11-06T00:45:18;99323.42578;;;;
44734;BME280;30462;52.446;-1.930;2022-11-06T00:46:18;99322.48828;;;;
44734;BME280;30462;52.446;-1.930;2022-11-06T00:47:18;99319.21875;;;;
44734;BME280;30462;52.446;-1.930;2022-11-06T00:48:18;99316.60156;;;;
44734;BME280;30462;52.446;-1.930;2022-11-06T00:49:18;99315.36719;;;;
44734;BME280;30462;52.446;-1.930;2022-11-06T00:50:18;99313.56641;;;;
44734;BME280;30462;52.446;-1.930;2022-11-06T00:51:18;99315.82422;;;;
44734;BME280;30462;52.446;-1.930;2022-11-06T00:52:18;99317.02344;;;;
44734;BME280;30462;52.446;-1.930;2022-11-06T00:53:18;99315.38672;;;;
44734;BME280;30462;52.446;-1.930;2022-11-06T00:54:19;99318.85547;;;;
44734;BME280;30462;52.446;-1.930;2022-11-06T00:55:18;99317.75391;;;;
44734;BME280;30462;52.446;-1.930;2022-11-06T00:56:18;99317.48047;;;;
44734;BME280;30462;52.446;-1.930;2022-11-06T00:57:17;99317.86719;;;;
44734;BME280;30462;52.446;-1.930;2022-11-06T00:58:18;99318.53906;;;;
44734;BME280;30462;52.446;-1.930;2022-11-06T00:59:18;99317.66797;;;;
44734;BME280;30462;52.446;-1.930;2022-11-06T01:00:18;99319.60938;;;;
44734;BME280;30462;52.446;-1.930;2022-11-06T01:01:19;99317.99609;;;;
44734;BME280;30462;52.446;-1.930;2022-11-06T01:02:18;99318.32031;;;;
44734;BME280;30462;52.446;-1.930;2022-11-06T01:03:18;99313.28516;;;;
44734;BME280;30462;52.446;-1.930;2022-11-06T01:04:19;99311.85156;;;;
44734;BME280;30462;52.446;-1.930;2022-11-06T01:05:18;99314.08594;;;;
44734;BME280;30462;52.446;-1.930;2022-11-06T01:06:19;99318.66406;;;;
44734;BME280;30462;52.446;-1.930;2022-11-06T01:07:18;99317.73828;;;;
44734;BME280;30462;52.446;-1.930;2022-11-06T01:08:18;99311.90234;;;;
44734;BME280;30462;52.446;-1.930;2022-11-06T01:09:18;99317.10547;;;;
44734;BME280;30462;52.446;-1.930;2022-11-06T01:10:17;99315.41406;;;;
44734;BME280;30462;52.446;-1.930;2022-11-06T01:11:19;99310.41797;;;;
44734;BME280;30462;52.446;-1.930;2022-11-06T01:12:18;99308.34375;;;;
44734;BME280;30462;52.446;-1.930;2022-11-06T01:13:18;99311.89063;;;;
44734;BME280;30462;52.446;-1.930;2022-11-06T01:14:18;99308.67578;;;;
44734;BME280;30462;52.446;-1.930;2022-11-06T01:15:18;99302.49609;;;;
44734;BME280;30462;52.446;-1.930;2022-11-06T01:16:18;99301.51172;;;;
44734;BME280;30462;52.446;-1.930;2022-11-06T01:17:18;99297.96875;;;;
44734;BME280;30462;52.446;-1.930;2022-11-06T01:18:18;99301.32813;;;;
44734;BME280;30462;52.446;-1.930;2022-11-06T01:19:19;99298.32813;;;;
44734;BME280;30462;52.446;-1.930;2022-11-06T01:20:18;99295.38672;;;;
44734;BME280;30462;52.446;-1.930;2022-11-06T01:21:19;99298.32813;;;;
44734;BME280;30462;52.446;-1.930;2022-11-06T01:22:18;99299.58203;;;;
44734;BME280;30462;52.446;-1.930;2022-11-06T01:23:18;99300;;;;
44734;BME280;30462;52.446;-1.930;2022-11-06T01:24:18;99297.10938;;;;
44734;BME280;30462;52.446;-1.930;2022-11-06T01:25:18;99296.12891;;;;
44734;BME280;30462;52.446;-1.930;2022-11-06T01:26:19;99292.67188;;;;
44734;BME280;30462;52.446;-1.930;2022-11-06T01:27:18;99288.99609;;;;
44734;BME280;30462;52.446;-1.930;2022-11-06T01:28:18;99290.6875;;;;
44734;BME280;30462;52.446;-1.930;2022-11-06T01:29:18;99287.12109;;;;
44734;BME280;30462;52.446;-1.930;2022-11-06T01:30:18;99285.28906;;;;
44734;BME280;30462;52.446;-1.930;2022-11-06T01:31:19;99286.87109;;;;
44734;BME280;30462;52.446;-1.930;2022-11-06T01:32:17;99282.72656;;;;
44734;BME280;30462;52.446;-1.930;2022-11-06T01:33:18;99282.07031;;;;
44734;BME280;30462;52.446;-1.930;2022-11-06T01:34:17;99283.05469;;;;
44734;BME280;30462;52.446;-1.930;2022-11-06T01:35:18;99279.43359;;;;
44734;BME280;30462;52.446;-1.930;2022-11-06T01:36:18;99276.01953;;;;
44734;BME280;30462;52.446;-1.930;2022-11-06T01:37:18;99271.13672;;;;
44734;BME280;30462;52.446;-1.930;2022-11-06T01:38:18;99271.11328;;;;
44734;BME280;30462;52.446;-1.930;2022-11-06T01:39:18;99268.00391;;;;
44734;BME280;30462;52.446;-1.930;2022-11-06T01:40:18;99268.05859;;;;
44734;BME280;30462;52.446;-1.930;2022-11-06T01:41:19;99263.25781;;;;
44734;BME280;30462;52.446;-1.930;2022-11-06T01:42:19;99263.58984;;;;
44734;BME280;30462;52.446;-1.930;2022-11-06T01:43:20;99258.625;;;;
44734;BME280;30462;52.446;-1.930;2022-11-06T01:45:22;99258.53906;;;;
44734;BME280;30462;52.446;-1.930;2022-11-06T01:46:19;99256.73828;;;;
44734;BME280;30462;52.446;-1.930;2022-11-06T01:47:19;99255.32422;;;;
44734;BME280;30462;52.446;-1.930;2022-11-06T01:48:19;99251.20703;;;;
44734;BME280;30462;52.446;-1.930;2022-11-06T01:49:18;99251.42578;;;;
44734;BME280;30462;52.446;-1.930;2022-11-06T01:50:18;99248.42578;;;;
44734;BME280;30462;52.446;-1.930;2022-11-06T01:51:18;99246.49219;;;;
44734;BME280;30462;52.446;-1.930;2022-11-06T01:52:18;99251.53125;;;;
44734;BME280;30462;52.446;-1.930;2022-11-06T01:53:18;99243.73438;;;;
44734;BME280;30462;52.446;-1.930;2022-11-06T01:54:18;99244.19531;;;;
44734;BME280;30462;52.446;-1.930;2022-11-06T01:55:20;99243.03906;;;;
44734;BME280;30462;52.446;-1.930;2022-11-06T01:56:18;99242.58203;;;;
44734;BME280;30462;52.446;-1.930;2022-11-06T01:57:18;99235.11328;;;;
44734;BME280;30462;52.446;-1.930;2022-11-06T01:58:19;99238.33203;;;;
44734;BME280;30462;52.446;-1.930;2022-11-06T01:59:19;99238.38281;;;;
44734;BME280;30462;52.446;-1.930;2022-11-06T02:00:18;99236.96875;;;;
44734;BME280;30462;52.446;-1.930;2022-11-06T02:01:18;99233.94531;;;;
44734;BME280;30462;52.446;-1.930;2022-11-06T02:02:18;99231.95703;;;;
44734;BME280;30462;52.446;-1.930;2022-11-06T02:03:18;99230.18359;;;;
44734;BME280;30462;52.446;-1.930;2022-11-06T02:04:23;99230.32422;;;;
44734;BME280;30462;52.446;-1.930;2022-11-06T02:05:18;99229.19922;;;;
44734;BME280;30462;52.446;-1.930;2022-11-06T02:06:18;99226.96484;;;;
44734;BME280;30462;52.446;-1.930;2022-11-06T02:07:17;99224.02344;;;;
44734;BME280;30462;52.446;-1.930;2022-11-06T02:08:18;99227.97266;;;;
44734;BME280;30462;52.446;-1.930;2022-11-06T02:09:18;99223.17578;;;;
44734;BME280;30462;52.446;-1.930;2022-11-06T02:10:18;99226.31641;;;;
44734;BME280;30462;52.446;-1.930;2022-11-06T02:11:18;99223.88672;;;;
44734;BME280;30462;52.446;-1.930;2022-11-06T02:12:21;99226.36719;;;;
44734;BME280;30462;52.446;-1.930;2022-11-06T02:14:18;99222;;;;
44734;BME280;30462;52.446;-1.930;2022-11-06T02:15:22;99219.10938;;;;
44734;BME280;30462;52.446;-1.930;2022-11-06T02:16:20;99214.34375;;;;
44734;BME280;30462;52.446;-1.930;2022-11-06T02:17:19;99212.54688;;;;
44734;BME280;30462;52.446;-1.930;2022-11-06T02:20:21;99207.79688;;;;
44734;BME280;30462;52.446;-1.930;2022-11-06T02:25:19;99192.62109;;;;
44734;BME280;30462;52.446;-1.930;2022-11-06T02:26:22;99194.63672;;;;
44734;BME280;30462;52.446;-1.930;2022-11-06T02:27:18;99189.1875;;;;
44734;BME280;30462;52.446;-1.930;2022-11-06T02:28:20;99189.95313;;;;
44734;BME280;30462;52.446;-1.930;2022-11-06T02:29:19;99188.01172;;;;
44734;BME280;30462;52.446;-1.930;2022-11-06T02:30:18;99185.91016;;;;
44734;BME280;30462;52.446;-1.930;2022-11-06T02:31:19;99184.82813;;;;
44734;BME280;30462;52.446;-1.930;2022-11-06T02:32:19;99182.10156;;;;
44734;BME280;30462;52.446;-1.930;2022-11-06T02:33:20;99182.1875;;;;
44734;BME280;30462;52.446;-1.930;2022-11-06T02:34:18;99182.1875;;;;
44734;BME280;30462;52.446;-1.930;2022-11-06T02:35:21;99178.24609;;;;
44734;BME280;30462;52.446;-1.930;2022-11-06T02:36:20;99177.75391;;;;
44734;BME280;30462;52.446;-1.930;2022-11-06T02:37:19;99176.90625;;;;
44734;BME280;30462;52.446;-1.930;2022-11-06T02:38:20;99175.70703;;;;
44734;BME280;30462;52.446;-1.930;2022-11-06T02:39:18;99176.27344;;;;
44734;BME280;30462;52.446;-1.930;2022-11-06T02:40:18;99173.62891;;;;
44734;BME280;30462;52.446;-1.930;2022-11-06T02:41:19;99171.47266;;;;
44734;BME280;30462;52.446;-1.930;2022-11-06T02:42:18;99171.71094;;;;
44734;BME280;30462;52.446;-1.930;2022-11-06T02:43:18;99169.09375;;;;
44734;BME280;30462;52.446;-1.930;2022-11-06T02:44:19;99169.17188;;;;
44734;BME280;30462;52.446;-1.930;2022-11-06T02:45:18;99168.21094;;;;
44734;BME280;30462;52.446;-1.930;2022-11-06T02:46:19;99165.6875;;;;
44734;BME280;30462;52.446;-1.930;2022-11-06T02:47:18;99170.75;;;;
44734;BME280;30462;52.446;-1.930;2022-11-06T02:48:19;99169.82422;;;;
44734;BME280;30462;52.446;-1.930;2022-11-06T02:49:18;99164.03125;;;;
44734;BME280;30462;52.446;-1.930;2022-11-06T02:50:18;99160.70313;;;;
44734;BME280;30462;52.446;-1.930;2022-11-06T02:51:19;99161.11719;;;;
44734;BME280;30462;52.446;-1.930;2022-11-06T02:52:18;99159.10156;;;;
44734;BME280;30462;52.446;-1.930;2022-11-06T02:53:19;99162.40625;;;;
44734;BME280;30462;52.446;-1.930;2022-11-06T02:54:18;99160.73438;;;;
44734;BME280;30462;52.446;-1.930;2022-11-06T02:55:21;99163.84375;;;;
44734;BME280;30462;52.446;-1.930;2022-11-06T02:56:19;99162.40625;;;;
44734;BME280;30462;52.446;-1.930;2022-11-06T02:57:18;99162.83984;;;;
44734;BME280;30462;52.446;-1.930;2022-11-06T02:58:19;99161.0625;;;;
44734;BME280;30462;52.446;-1.930;2022-11-06T02:59:19;99157.60547;;;;
44734;BME280;30462;52.446;-1.930;2022-11-06T03:00:18;99159.38672;;;;
44734;BME280;30462;52.446;-1.930;2022-11-06T03:01:19;99154.82813;;;;
44734;BME280;30462;52.446;-1.930;2022-11-06T03:02:18;99154.96094;;;;
44734;BME280;30462;52.446;-1.930;2022-11-06T03:03:20;99154.98438;;;;
44734;BME280;30462;52.446;-1.930;2022-11-06T03:04:19;99152.12891;;;;
44734;BME280;30462;52.446;-1.930;2022-11-06T03:05:19;99150.6875;;;;
44734;BME280;30462;52.446;-1.930;2022-11-06T03:06:19;99147.58594;;;;
44734;BME280;30462;52.446;-1.930;2022-11-06T03:07:18;99146.65625;;;;
44734;BME280;30462;52.446;-1.930;2022-11-06T03:08:20;99146.625;;;;
44734;BME280;30462;52.446;-1.930;2022-11-06T03:09:18;99148.04297;;;;
44734;BME280;30462;52.446;-1.930;2022-11-06T03:10:18;99147.14063;;;;
44734;BME280;30462;52.446;-1.930;2022-11-06T03:11:19;99144.03516;;;;
44734;BME280;30462;52.446;-1.930;2022-11-06T03:12:21;99140.10547;;;;
44734;BME280;30462;52.446;-1.930;2022-11-06T03:13:19;99135.69141;;;;
44734;BME280;30462;52.446;-1.930;2022-11-06T03:14:20;99136.8125;;;;
44734;BME280;30462;52.446;-1.930;2022-11-06T03:15:19;99135.66797;;;;
44734;BME280;30462;52.446;-1.930;2022-11-06T03:16:22;99133.08203;;;;
44734;BME280;30462;52.446;-1.930;2022-11-06T03:17:19;99129.19141;;;;
44734;BME280;30462;52.446;-1.930;2022-11-06T03:18:21;99125.92188;;;;
44734;BME280;30462;52.446;-1.930;2022-11-06T03:19:20;99124.50391;;;;
44734;BME280;30462;52.446;-1.930;2022-11-06T03:20:19;99120.09375;;;;
44734;BME280;30462;52.446;-1.930;2022-11-06T03:21:19;99115.73438;;;;
44734;BME280;30462;52.446;-1.930;2022-11-06T03:22:22;99114.58984;;;;
44734;BME280;30462;52.446;-1.930;2022-11-06T03:23:19;99113.44922;;;;
44734;BME280;30462;52.446;-1.930;2022-11-06T03:24:18;99111.53906;;;;
44734;BME280;30462;52.446;-1.930;2022-11-06T03:25:19;99111.89844;;;;
44734;BME280;30462;52.446;-1.930;2022-11-06T03:26:18;99114.48047;;;;
44734;BME280;30462;52.446;-1.930;2022-11-06T03:27:18;99112.73438;;;;
44734;BME280;30462;52.446;-1.930;2022-11-06T03:28:21;99115.87109;;;;
44734;BME280;30462;52.446;-1.930;2022-11-06T03:29:18;99113.64063;;;;
44734;BME280;30462;52.446;-1.930;2022-11-06T03:30:18;99113.17578;;;;
44734;BME280;30462;52.446;-1.930;2022-11-06T03:31:18;99114.04688;;;;
44734;BME280;30462;52.446;-1.930;2022-11-06T03:32:19;99109.60156;;;;
44734;BME280;30462;52.446;-1.930;2022-11-06T03:33:22;99109.6875;;;;
44734;BME280;30462;52.446;-1.930;2022-11-06T03:34:20;99113.41797;;;;
44734;BME280;30462;52.446;-1.930;2022-11-06T03:35:19;99110.80469;;;;
44734;BME280;30462;52.446;-1.930;2022-11-06T03:36:18;99111.44922;;;;
44734;BME280;30462;52.446;-1.930;2022-11-06T03:37:18;99113;;;;
44734;BME280;30462;52.446;-1.930;2022-11-06T03:38:19;99114.12109;;;;
44734;BME280;30462;52.446;-1.930;2022-11-06T03:39:19;99120.95313;;;;
44734;BME280;30462;52.446;-1.930;2022-11-06T03:40:19;99117.4375;;;;
44734;BME280;30462;52.446;-1.930;2022-11-06T03:41:18;99117.65234;;;;
44734;BME280;30462;52.446;-1.930;2022-11-06T03:42:19;99115.83203;;;;
44734;BME280;30462;52.446;-1.930;2022-11-06T03:43:18;99115.80078;;;;
44734;BME280;30462;52.446;-1.930;2022-11-06T03:44:19;99114.49219;;;;
44734;BME280;30462;52.446;-1.930;2022-11-06T03:45:19;99113.64453;;;;
44734;BME280;30462;52.446;-1.930;2022-11-06T03:46:18;99110.73438;;;;
44734;BME280;30462;52.446;-1.930;2022-11-06T03:47:19;99108.79688;;;;
44734;BME280;30462;52.446;-1.930;2022-11-06T03:48:19;99108.08984;;;;
44734;BME280;30462;52.446;-1.930;2022-11-06T03:49:19;99110.54297;;;;
44734;BME280;30462;52.446;-1.930;2022-11-06T03:50:20;99109.50781;;;;
44734;BME280;30462;52.446;-1.930;2022-11-06T03:51:18;99106.01953;;;;
44734;BME280;30462;52.446;-1.930;2022-11-06T03:52:18;99108.30859;;;;
44734;BME280;30462;52.446;-1.930;2022-11-06T03:53:19;99106.16016;;;;
44734;BME280;30462;52.446;-1.930;2022-11-06T03:54:19;99109.48047;;;;
44734;BME280;30462;52.446;-1.930;2022-11-06T03:55:20;99103.49219;;;;
44734;BME280;30462;52.446;-1.930;2022-11-06T03:56:19;99105.12891;;;;
44734;BME280;30462;52.446;-1.930;2022-11-06T03:57:20;99103.22266;;;;
44734;BME280;30462;52.446;-1.930;2022-11-06T03:58:19;99100.30078;;;;
44734;BME280;30462;52.446;-1.930;2022-11-06T03:59:18;99100.35547;;;;
44734;BME280;30462;52.446;-1.930;2022-11-06T04:00:18;99092.48438;;;;
44734;BME280;30462;52.446;-1.930;2022-11-06T04:01:20;99094.11719;;;;
44734;BME280;30462;52.446;-1.930;2022-11-06T04:02:18;99091.96875;;;;
44734;BME280;30462;52.446;-1.930;2022-11-06T04:03:19;99093.27734;;;;
44734;BME280;30462;52.446;-1.930;2022-11-06T04:04:22;99093.92969;;;;
44734;BME280;30462;52.446;-1.930;2022-11-06T04:05:20;99092.13281;;;;
44734;BME280;30462;52.446;-1.930;2022-11-06T04:06:20;99094.36328;;;;
44734;BME280;30462;52.446;-1.930;2022-11-06T04:07:18;99094.91406;;;;
44734;BME280;30462;52.446;-1.930;2022-11-06T04:08:18;99092.94922;;;;
44734;BME280;30462;52.446;-1.930;2022-11-06T04:09:19;99090.64063;;;;
44734;BME280;30462;52.446;-1.930;2022-11-06T04:10:19;99092.04688;;;;
44734;BME280;30462;52.446;-1.930;2022-11-06T04:11:19;99090.03125;;;;
44734;BME280;30462;52.446;-1.930;2022-11-06T04:12:18;99088.28906;;;;
44734;BME280;30462;52.446;-1.930;2022-11-06T04:13:18;99086.19531;;;;
44734;BME280;30462;52.446;-1.930;2022-11-06T04:14:18;99084.94141;;;;
44734;BME280;30462;52.446;-1.930;2022-11-06T04:15:18;99081.07422;;;;
44734;BME280;30462;52.446;-1.930;2022-11-06T04:16:18;99080.09766;;;;
44734;BME280;30462;52.446;-1.930;2022-11-06T04:17:18;99080.12109;;;;
44734;BME280;30462;52.446;-1.930;2022-11-06T04:18:18;99076.41797;;;;
44734;BME280;30462;52.446;-1.930;2022-11-06T04:19:18;99069.79688;;;;
44734;BME280;30462;52.446;-1.930;2022-11-06T04:20:19;99065.90234;;;;
44734;BME280;30462;52.446;-1.930;2022-11-06T04:21:23;99067.61719;;;;
44734;BME280;30462;52.446;-1.930;2022-11-06T04:22:24;99065.98438;;;;
44734;BME280;30462;52.446;-1.930;2022-11-06T04:23:26;99064.13672;;;;
44734;BME280;30462;52.446;-1.930;2022-11-06T04:24:25;99064.13672;;;;
44734;BME280;30462;52.446;-1.930;2022-11-06T04:25:25;99064.13672;;;;
44734;BME280;30462;52.446;-1.930;2022-11-06T04:26:24;99058.60547;;;;
44734;BME280;30462;52.446;-1.930;2022-11-06T04:28:21;99049.28516;;;;
44734;BME280;30462;52.446;-1.930;2022-11-06T04:29:19;99047.16406;;;;
44734;BME280;30462;52.446;-1.930;2022-11-06T04:30:18;99040.49219;;;;
44734;BME280;30462;52.446;-1.930;2022-11-06T04:31:20;99037.28125;;;;
44734;BME280;30462;52.446;-1.930;2022-11-06T04:32:21;99039.05469;;;;
44734;BME280;30462;52.446;-1.930;2022-11-06T04:33:19;99035.92578;;;;
44734;BME280;30462;52.446;-1.930;2022-11-06T04:34:19;99038.94922;;;;
44734;BME280;30462;52.446;-1.930;2022-11-06T04:35:19;99038.8125;;;;
44734;BME280;30462;52.446;-1.930;2022-11-06T04:36:20;99038.24219;;;;
44734;BME280;30462;52.446;-1.930;2022-11-06T04:37:20;99039.98438;;;;
44734;BME280;30462;52.446;-1.930;2022-11-06T04:38:20;99037.33984;;;;
44734;BME280;30462;52.446;-1.930;2022-11-06T04:39:24;99037.75391;;;;
44734;BME280;30462;52.446;-1.930;2022-11-06T04:40:21;99035.46484;;;;
44734;BME280;30462;52.446;-1.930;2022-11-06T04:41:22;99034.48438;;;;
44734;BME280;30462;52.446;-1.930;2022-11-06T04:42:20;99030.61719;;;;
44734;BME280;30462;52.446;-1.930;2022-11-06T04:43:19;99030.96875;;;;
44734;BME280;30462;52.446;-1.930;2022-11-06T04:44:22;99033.80078;;;;
44734;BME280;30462;52.446;-1.930;2022-11-06T04:45:19;99029.74219;;;;
44734;BME280;30462;52.446;-1.930;2022-11-06T04:46:18;99029.30078;;;;
44734;BME280;30462;52.446;-1.930;2022-11-06T04:47:19;99028.29297;;;;
44734;BME280;30462;52.446;-1.930;2022-11-06T04:48:18;99026.33203;;;;
44734;BME280;30462;52.446;-1.930;2022-11-06T04:49:18;99027.31641;;;;
44734;BME280;30462;52.446;-1.930;2022-11-06T04:50:18;99023.74219;;;;
44734;BME280;30462;52.446;-1.930;2022-11-06T04:51:18;99021.97266;;;;
44734;BME280;30462;52.446;-1.930;2022-11-06T04:52:19;99019.41016;;;;
44734;BME280;30462;52.446;-1.930;2022-11-06T04:53:18;99018.91797;;;;
44734;BME280;30462;52.446;-1.930;2022-11-06T04:54:18;99017.06641;;;;
44734;BME280;30462;52.446;-1.930;2022-11-06T04:55:19;99019.35156;;;;
44734;BME280;30462;52.446;-1.930;2022-11-06T04:56:22;99018.37891;;;;
44734;BME280;30462;52.446;-1.930;2022-11-06T04:57:17;99016.38672;;;;
44734;BME280;30462;52.446;-1.930;2022-11-06T04:58:18;99016.90625;;;;
44734;BME280;30462;52.446;-1.930;2022-11-06T04:59:18;99011.75781;;;;
44734;BME280;30462;52.446;-1.930;2022-11-06T05:00:18;99013.19531;;;;
44734;BME280;30462;52.446;-1.930;2022-11-06T05:01:18;99010.62891;;;;
44734;BME280;30462;52.446;-1.930;2022-11-06T05:02:17;99009.01953;;;;
44734;BME280;30462;52.446;-1.930;2022-11-06T05:03:18;99011.27734;;;;
44734;BME280;30462;52.446;-1.930;2022-11-06T05:04:18;99009.12109;;;;
44734;BME280;30462;52.446;-1.930;2022-11-06T05:05:18;99008.56641;;;;
44734;BME280;30462;52.446;-1.930;2022-11-06T05:06:18;99005.67969;;;;
44734;BME280;30462;52.446;-1.930;2022-11-06T05:07:18;99004.50781;;;;
44734;BME280;30462;52.446;-1.930;2022-11-06T05:08:18;99004.39453;;;;
44734;BME280;30462;52.446;-1.930;2022-11-06T05:09:18;99002.38281;;;;
44734;BME280;30462;52.446;-1.930;2022-11-06T05:10:17;99000.88672;;;;
44734;BME280;30462;52.446;-1.930;2022-11-06T05:11:18;99004.75781;;;;
44734;BME280;30462;52.446;-1.930;2022-11-06T05:12:18;99001.76172;;;;
44734;BME280;30462;52.446;-1.930;2022-11-06T05:13:17;99003.17578;;;;
44734;BME280;30462;52.446;-1.930;2022-11-06T05:14:18;99006.46875;;;;
44734;BME280;30462;52.446;-1.930;2022-11-06T05:15:18;99005.15625;;;;
44734;BME280;30462;52.446;-1.930;2022-11-06T05:16:18;99008.66797;;;;
44734;BME280;30462;52.446;-1.930;2022-11-06T05:17:18;99008.69922;;;;
44734;BME280;30462;52.446;-1.930;2022-11-06T05:18:18;99008.625;;;;
44734;BME280;30462;52.446;-1.930;2022-11-06T05:19:18;99007.28906;;;;
44734;BME280;30462;52.446;-1.930;2022-11-06T05:20:18;99007.88672;;;;
44734;BME280;30462;52.446;-1.930;2022-11-06T05:21:18;99004.52344;;;;
44734;BME280;30462;52.446;-1.930;2022-11-06T05:22:18;99004.73828;;;;
44734;BME280;30462;52.446;-1.930;2022-11-06T05:23:18;99008.36328;;;;
44734;BME280;30462;52.446;-1.930;2022-11-06T05:24:18;99009.03516;;;;
44734;BME280;30462;52.446;-1.930;2022-11-06T05:25:17;99008.10547;;;;
44734;BME280;30462;52.446;-1.930;2022-11-06T05:26:18;99013.25781;;;;
44734;BME280;30462;52.446;-1.930;2022-11-06T05:27:18;99012.35938;;;;
44734;BME280;30462;52.446;-1.930;2022-11-06T05:28:17;99010.06641;;;;
44734;BME280;30462;52.446;-1.930;2022-11-06T05:29:18;99006.60938;;;;
44734;BME280;30462;52.446;-1.930;2022-11-06T05:30:18;99006.6875;;;;
44734;BME280;30462;52.446;-1.930;2022-11-06T05:31:17;99003.65625;;;;
44734;BME280;30462;52.446;-1.930;2022-11-06T05:32:18;99005.58594;;;;
44734;BME280;30462;52.446;-1.930;2022-11-06T05:33:18;99004.07031;;;;
44734;BME280;30462;52.446;-1.930;2022-11-06T05:34:18;99003.41797;;;;
44734;BME280;30462;52.446;-1.930;2022-11-06T05:35:18;99003.55469;;;;
44734;BME280;30462;52.446;-1.930;2022-11-06T05:36:18;99000.30859;;;;
44734;BME280;30462;52.446;-1.930;2022-11-06T05:37:18;98998.69531;;;;
44734;BME280;30462;52.446;-1.930;2022-11-06T05:38:18;98996.36719;;;;
44734;BME280;30462;52.446;-1.930;2022-11-06T05:39:18;98991.01172;;;;
44734;BME280;30462;52.446;-1.930;2022-11-06T05:40:18;98986.29297;;;;
44734;BME280;30462;52.446;-1.930;2022-11-06T05:41:18;98982.46875;;;;
44734;BME280;30462;52.446;-1.930;2022-11-06T05:42:18;98977.28516;;;;
44734;BME280;30462;52.446;-1.930;2022-11-06T05:43:18;98974.50391;;;;
44734;BME280;30462;52.446;-1.930;2022-11-06T05:44:18;98969.83984;;;;
44734;BME280;30462;52.446;-1.930;2022-11-06T05:45:18;98972.62891;;;;
44734;BME280;30462;52.446;-1.930;2022-11-06T05:46:18;98973.13281;;;;
44734;BME280;30462;52.446;-1.930;2022-11-06T05:47:18;98963.75391;;;;
44734;BME280;30462;52.446;-1.930;2022-11-06T05:48:17;98962.70703;;;;
44734;BME280;30462;52.446;-1.930;2022-11-06T05:49:18;98959.54688;;;;
44734;BME280;30462;52.446;-1.930;2022-11-06T05:50:18;98960.36719;;;;
44734;BME280;30462;52.446;-1.930;2022-11-06T05:51:17;98958.24219;;;;
44734;BME280;30462;52.446;-1.930;2022-11-06T05:52:18;98958.41406;;;;
44734;BME280;30462;52.446;-1.930;2022-11-06T05:53:18;98958.73438;;;;
44734;BME280;30462;52.446;-1.930;2022-11-06T05:54:17;98961.23438;;;;
44734;BME280;30462;52.446;-1.930;2022-11-06T05:55:18;98959.42578;;;;